Time;durP1;ratioP1;P1;durP2;ratioP2;P2;SDS_P1;SDS_P2;PMS_P1;PMS_P2;Temp;Humidity;BMP_temperature;BMP_pressure;BME280_temperature;BME280_humidity;BME280_pressure;Samples;Min_cycle;Max_cycle;Signal;HPM_P1;HPM_P2
2023/09/18 00:00:04;;;;;;;7.47;4.78;;;;;;;19.29;63.17;100658.06;7393783;19;20010;-69
2023/09/18 00:02:35;;;;;;;5.50;4.95;;;;;;;19.26;63.20;100659.09;7395241;19;20011;-69
2023/09/18 00:05:03;;;;;;;6.25;5.43;;;;;;;19.25;63.34;100657.38;7395476;19;20024;-69
2023/09/18 00:07:32;;;;;;;6.35;5.72;;;;;;;19.23;63.92;100650.44;7394881;19;20496;-69
2023/09/18 00:10:00;;;;;;;5.55;4.70;;;;;;;19.23;63.50;100651.28;7395217;19;20015;-69
2023/09/18 00:12:29;;;;;;;5.63;4.82;;;;;;;19.21;64.08;100639.91;7395336;19;20482;-69
2023/09/18 00:14:57;;;;;;;7.07;4.70;;;;;;;19.21;64.03;100642.56;7395111;19;20070;-68
2023/09/18 00:17:26;;;;;;;5.28;4.78;;;;;;;19.19;63.93;100641.78;7395009;19;20014;-69
2023/09/18 00:19:57;;;;;;;6.93;4.90;;;;;;;19.18;63.87;100640.94;7393789;19;20010;-69
2023/09/18 00:22:28;;;;;;;6.53;5.05;;;;;;;19.17;64.10;100641.91;7395290;19;20010;-68
2023/09/18 00:24:56;;;;;;;4.50;4.10;;;;;;;19.18;64.21;100635.63;7395314;19;20040;-68
2023/09/18 00:27:25;;;;;;;6.38;5.43;;;;;;;19.19;63.67;100637.31;7394405;19;20485;-69
2023/09/18 00:29:53;;;;;;;5.97;4.70;;;;;;;19.20;63.82;100643.50;7393045;19;20022;-69
2023/09/18 00:32:21;;;;;;;4.97;4.45;;;;;;;19.23;63.63;100637.16;7394246;19;20486;-69
2023/09/18 00:34:50;;;;;;;6.50;4.68;;;;;;;19.23;63.73;100631.84;7392578;19;20010;-69
2023/09/18 00:37:21;;;;;;;4.72;4.32;;;;;;;19.26;63.40;100621.88;7392154;19;20380;-69
2023/09/18 00:39:49;;;;;;;5.30;4.82;;;;;;;19.28;63.34;100625.28;7393155;19;20506;-69
2023/09/18 00:42:18;;;;;;;6.13;4.60;;;;;;;19.28;63.52;100627.94;7394463;19;20028;-69
2023/09/18 00:44:46;;;;;;;5.25;3.92;;;;;;;19.30;63.74;100620.72;7392352;19;20014;-68
2023/09/18 00:47:16;;;;;;;4.88;4.05;;;;;;;19.31;63.62;100625.09;7394278;19;20035;-69
2023/09/18 00:49:49;;;;;;;4.80;4.03;;;;;;;19.31;63.41;100622.44;7394254;19;20044;-69
2023/09/18 00:52:22;;;;;;;4.25;3.85;;;;;;;19.34;63.15;100626.72;7392612;19;20019;-69
2023/09/18 00:54:52;;;;;;;4.80;4.30;;;;;;;19.33;63.58;100617.88;7392161;19;20018;-69
2023/09/18 00:57:20;;;;;;;4.43;4.03;;;;;;;19.34;63.02;100618.75;7391870;19;20066;-69
2023/09/18 00:59:49;;;;;;;4.75;4.13;;;;;;;19.34;63.16;100610.75;7392773;19;20014;-69
2023/09/18 01:02:20;;;;;;;5.88;4.50;;;;;;;19.35;63.10;100612.47;7393875;19;20018;-69
2023/09/18 01:04:50;;;;;;;4.32;4.00;;;;;;;19.35;62.97;100610.66;7391383;19;20477;-69
2023/09/18 01:07:21;;;;;;;5.75;5.20;;;;;;;19.36;63.39;100603.53;7399524;19;20011;-69
2023/09/18 01:09:50;;;;;;;4.95;4.45;;;;;;;19.35;63.44;100605.34;7400748;19;20485;-69
2023/09/18 01:12:23;;;;;;;5.07;4.40;;;;;;;19.34;63.42;100606.28;7398358;19;20135;-69
2023/09/18 01:15:04;;;;;;;6.82;4.63;;;;;;;19.32;63.34;100602.88;7398610;19;20489;-69
2023/09/18 01:17:38;;;;;;;5.60;4.35;;;;;;;19.29;63.65;100595.06;7401156;19;20367;-69
2023/09/18 01:20:08;;;;;;;5.38;4.50;;;;;;;19.26;63.84;100603.25;7399712;19;20011;-69
2023/09/18 01:22:39;;;;;;;8.60;5.05;;;;;;;19.21;63.83;100592.88;7399905;19;20010;-70
2023/09/18 01:25:09;;;;;;;5.90;4.45;;;;;;;19.18;63.90;100598.41;7400932;19;20379;-69
2023/09/18 01:27:37;;;;;;;5.47;4.97;;;;;;;19.13;64.27;100602.28;7400477;19;20015;-70
2023/09/18 01:30:07;;;;;;;5.80;5.20;;;;;;;19.02;64.69;100595.78;7397966;19;20022;-68
2023/09/18 01:32:39;;;;;;;5.65;5.05;;;;;;;18.94;64.95;100591.88;7400037;19;20007;-69
2023/09/18 01:35:15;;;;;;;8.15;5.43;;;;;;;18.83;65.13;100597.78;7400300;19;20070;-69
2023/09/18 01:37:48;;;;;;;5.57;4.65;;;;;;;18.73;65.58;100594.84;7400113;19;20423;-69
2023/09/18 01:40:16;;;;;;;6.85;5.28;;;;;;;18.63;66.10;100593.66;7398534;19;20018;-69
2023/09/18 01:42:46;;;;;;;5.47;4.97;;;;;;;18.53;66.14;100599.47;7399580;19;20014;-69
2023/09/18 01:45:14;;;;;;;6.80;5.20;;;;;;;18.45;66.42;100588.47;7399868;19;20085;-69
2023/09/18 01:47:43;;;;;;;5.80;5.20;;;;;;;18.38;66.78;100590.59;7397365;19;20082;-69
2023/09/18 01:50:13;;;;;;;6.10;5.50;;;;;;;18.31;66.92;100583.94;7399656;19;20011;-69
2023/09/18 01:52:41;;;;;;;5.43;4.93;;;;;;;18.30;67.05;100581.34;7398876;19;20017;-69
2023/09/18 01:55:13;;;;;;;5.50;5.00;;;;;;;18.28;67.50;100578.78;7399503;19;20027;-69
2023/09/18 01:57:42;;;;;;;5.43;4.93;;;;;;;18.26;67.17;100582.47;7400446;19;20015;-69
2023/09/18 02:00:12;;;;;;;5.60;5.05;;;;;;;18.21;67.29;100574.75;7401800;19;20027;-69
2023/09/18 02:02:40;;;;;;;5.38;4.88;;;;;;;18.18;67.70;100565.16;7401895;19;20027;-69
2023/09/18 02:05:09;;;;;;;5.40;4.90;;;;;;;18.15;67.65;100564.50;7400839;19;20011;-69
2023/09/18 02:07:37;;;;;;;5.72;5.13;;;;;;;18.11;68.01;100544.38;7399079;19;20424;-69
2023/09/18 02:10:07;;;;;;;6.18;5.57;;;;;;;18.09;68.09;100535.66;7396870;19;20009;-68
2023/09/18 02:12:38;;;;;;;6.18;5.60;;;;;;;18.05;68.36;100537.63;7398691;19;20431;-69
2023/09/18 02:15:10;;;;;;;6.15;5.50;;;;;;;18.01;68.46;100534.28;7398430;19;20508;-69
2023/09/18 02:17:39;;;;;;;6.03;4.97;;;;;;;17.98;68.39;100538.91;7397780;19;20014;-69
2023/09/18 02:20:11;;;;;;;6.22;4.97;;;;;;;17.93;68.87;100533.81;7397379;19;20018;-70
2023/09/18 02:22:40;;;;;;;6.90;5.22;;;;;;;17.88;69.10;100536.72;7398776;19;20006;-69
2023/09/18 02:25:10;;;;;;;7.82;4.85;;;;;;;17.85;68.93;100533.38;7396012;19;20374;-69
2023/09/18 02:27:41;;;;;;;6.20;5.47;;;;;;;17.81;69.26;100530.03;7398341;19;20014;-69
2023/09/18 02:30:11;;;;;;;6.97;5.70;;;;;;;17.79;69.37;100526.59;7396747;19;20086;-69
2023/09/18 02:32:40;;;;;;;8.15;5.22;;;;;;;17.77;69.55;100532.94;7395513;19;20017;-69
2023/09/18 02:35:09;;;;;;;5.95;5.35;;;;;;;17.73;69.68;100522.50;7396022;19;20023;-69
2023/09/18 02:37:38;;;;;;;6.28;5.57;;;;;;;17.70;69.88;100520.00;7395748;19;20011;-69
2023/09/18 02:40:08;;;;;;;7.38;5.35;;;;;;;17.66;69.91;100517.63;7397119;19;20018;-69
2023/09/18 02:42:36;;;;;;;5.53;5.03;;;;;;;17.63;70.34;100516.00;7397132;19;20494;-69
2023/09/18 02:45:09;;;;;;;8.35;5.55;;;;;;;17.58;70.25;100513.59;7397832;19;20022;-68
2023/09/18 02:47:41;;;;;;;6.07;5.45;;;;;;;17.54;70.27;100505.88;7398050;19;20021;-68
2023/09/18 02:50:10;;;;;;;8.10;6.25;;;;;;;17.50;70.46;100502.56;7398083;19;20027;-69
2023/09/18 02:52:39;;;;;;;7.15;6.13;;;;;;;17.46;70.75;100503.66;7396947;19;20477;-69
2023/09/18 02:55:09;;;;;;;6.93;6.15;;;;;;;17.41;70.93;100493.31;7397326;19;20014;-69
2023/09/18 02:57:38;;;;;;;6.53;5.93;;;;;;;17.38;71.00;100496.13;7395143;19;20374;-68
2023/09/18 03:00:11;;;;;;;6.40;5.80;;;;;;;17.34;70.98;100488.41;7396226;19;20010;-69
2023/09/18 03:02:39;;;;;;;7.53;5.90;;;;;;;17.33;71.24;100489.38;7396735;19;20021;-70
2023/09/18 03:05:08;;;;;;;7.20;6.15;;;;;;;17.31;71.21;100493.88;7396941;19;20078;-69
2023/09/18 03:07:37;;;;;;;7.60;6.60;;;;;;;17.28;71.51;100492.25;7396778;19;20017;-69
2023/09/18 03:10:07;;;;;;;8.80;6.43;;;;;;;17.25;71.64;100484.47;7396558;19;20485;-69
2023/09/18 03:12:35;;;;;;;5.97;5.18;;;;;;;17.22;71.69;100485.47;7396717;19;20035;-69
2023/09/18 03:15:04;;;;;;;6.85;6.15;;;;;;;17.19;72.16;100490.94;7396506;19;20481;-69
2023/09/18 03:17:35;;;;;;;8.10;6.82;;;;;;;17.17;72.07;100490.16;7396708;19;20014;-69
2023/09/18 03:20:04;;;;;;;7.15;5.82;;;;;;;17.15;72.46;100489.41;7395758;19;20006;-69
2023/09/18 03:22:34;;;;;;;7.15;6.40;;;;;;;17.15;72.11;100483.25;7394439;19;20012;-69
2023/09/18 03:25:02;;;;;;;7.85;5.90;;;;;;;17.14;72.54;100492.16;7394919;19;20090;-70
2023/09/18 03:27:31;;;;;;;7.88;6.30;;;;;;;17.12;72.39;100489.56;7396013;19;20017;-69
2023/09/18 03:30:00;;;;;;;9.70;7.38;;;;;;;17.10;72.64;100489.66;7392887;19;20015;-68
2023/09/18 03:32:28;;;;;;;12.27;9.68;;;;;;;17.10;72.66;100486.16;7395756;19;20086;-69
2023/09/18 03:34:59;;;;;;;8.20;6.93;;;;;;;17.08;72.57;100485.38;7395706;19;20028;-69
2023/09/18 03:37:28;;;;;;;8.80;7.10;;;;;;;17.07;72.74;100486.31;7395641;19;20015;-69
2023/09/18 03:39:56;;;;;;;7.38;6.43;;;;;;;17.06;72.98;100484.59;7395839;19;20022;-68
2023/09/18 03:42:24;;;;;;;8.30;6.78;;;;;;;17.04;72.73;100479.38;7395517;19;20027;-68
2023/09/18 03:44:53;;;;;;;7.10;6.40;;;;;;;17.03;72.91;100471.50;7394161;19;20011;-68
2023/09/18 03:47:22;;;;;;;6.80;6.00;;;;;;;17.02;73.21;100470.66;7395406;19;20078;-69
2023/09/18 03:49:50;;;;;;;7.68;6.20;;;;;;;17.01;73.29;100466.28;7395947;19;20426;-69
2023/09/18 03:52:21;;;;;;;9.80;6.88;;;;;;;16.99;73.47;100462.84;7395749;19;20023;-70
2023/09/18 03:54:50;;;;;;;8.73;7.20;;;;;;;16.99;73.19;100462.00;7393743;19;20485;-69
2023/09/18 03:57:18;;;;;;;7.90;6.15;;;;;;;16.97;73.60;100454.13;7394962;19;20029;-68
2023/09/18 03:59:59;;;;;;;7.57;6.45;;;;;;;16.95;73.68;100453.38;7395003;19;20062;-69
2023/09/18 04:02:29;;;;;;;8.85;6.57;;;;;;;16.94;73.81;100449.00;7394792;19;20282;-69
2023/09/18 04:04:58;;;;;;;8.52;6.55;;;;;;;16.93;73.63;100447.28;7394644;19;20649;-68
2023/09/18 04:07:29;;;;;;;8.55;6.38;;;;;;;16.93;73.66;100442.84;7392883;19;20369;-69
2023/09/18 04:09:58;;;;;;;8.77;6.78;;;;;;;16.91;73.94;100439.41;7395165;19;20030;-68
2023/09/18 04:12:26;;;;;;;9.13;7.05;;;;;;;16.90;73.98;100442.13;7394726;19;20399;-68
2023/09/18 04:14:55;;;;;;;7.20;6.00;;;;;;;16.88;73.97;100436.91;7393065;19;20498;-68
2023/09/18 04:17:23;;;;;;;8.20;5.97;;;;;;;16.88;74.25;100442.22;7395418;19;20372;-69
2023/09/18 04:19:52;;;;;;;7.40;6.60;;;;;;;16.87;74.19;100439.63;7394252;19;20366;-68
2023/09/18 04:22:20;;;;;;;10.23;6.53;;;;;;;16.85;74.51;100441.53;7394545;19;20024;-67
2023/09/18 04:24:51;;;;;;;7.60;6.53;;;;;;;16.82;74.57;100434.59;7392662;19;20090;-67
2023/09/18 04:27:20;;;;;;;7.05;5.97;;;;;;;16.82;74.51;100434.59;7394670;19;20078;-69
2023/09/18 04:29:48;;;;;;;7.55;6.85;;;;;;;16.81;74.74;100432.00;7392370;19;20019;-69
2023/09/18 04:32:17;;;;;;;6.80;5.95;;;;;;;16.78;74.50;100430.38;7394360;19;20074;-69
2023/09/18 04:34:45;;;;;;;9.25;7.20;;;;;;;16.77;74.93;100431.34;7392126;19;20411;-68
2023/09/18 04:37:14;;;;;;;10.02;6.88;;;;;;;16.74;74.90;100426.19;7393667;19;20011;-69
2023/09/18 04:39:42;;;;;;;6.45;5.82;;;;;;;16.75;75.20;100420.78;7395724;19;20017;-69
2023/09/18 04:42:13;;;;;;;7.95;7.15;;;;;;;16.74;75.16;100421.75;7398164;19;20014;-69
2023/09/18 04:44:42;;;;;;;7.68;6.97;;;;;;;16.73;75.12;100422.69;7398575;19;20078;-69
2023/09/18 04:47:10;;;;;;;22.65;15.98;;;;;;;16.71;75.26;100416.59;7400672;19;20019;-69
2023/09/18 04:49:39;;;;;;;11.60;9.60;;;;;;;16.69;75.73;100417.63;7401158;19;20023;-68
2023/09/18 04:52:07;;;;;;;8.15;6.80;;;;;;;16.67;75.71;100420.34;7401547;19;20011;-68
2023/09/18 04:54:36;;;;;;;10.10;8.13;;;;;;;16.66;75.67;100409.84;7399111;19;20046;-68
2023/09/18 04:57:05;;;;;;;7.78;6.97;;;;;;;16.64;75.49;100412.56;7400598;19;20477;-69
2023/09/18 04:59:36;;;;;;;7.47;6.78;;;;;;;16.61;76.02;100405.63;7400019;19;20077;-69
2023/09/18 05:02:05;;;;;;;8.30;7.13;;;;;;;16.61;76.14;100404.78;7397081;19;20070;-68
2023/09/18 05:04:33;;;;;;;8.65;7.25;;;;;;;16.61;76.13;100399.47;7398297;19;20017;-69
2023/09/18 05:07:02;;;;;;;9.60;6.88;;;;;;;16.62;76.32;100406.50;7399653;19;20014;-68
2023/09/18 05:09:31;;;;;;;10.23;8.18;;;;;;;16.61;76.40;100410.06;7399003;19;20010;-69
2023/09/18 05:11:59;;;;;;;8.30;7.43;;;;;;;16.62;76.20;100401.19;7399649;19;20015;-69
2023/09/18 05:14:27;;;;;;;7.70;6.68;;;;;;;16.61;76.30;100396.84;7396975;19;20085;-69
2023/09/18 05:16:59;;;;;;;8.50;7.70;;;;;;;16.64;76.45;100398.47;7399810;19;20482;-70
2023/09/18 05:19:28;;;;;;;7.63;6.93;;;;;;;16.62;76.67;100395.91;7399257;19;20078;-67
2023/09/18 05:21:57;;;;;;;8.05;6.88;;;;;;;16.64;76.39;100394.00;7395947;19;20010;-69
2023/09/18 05:24:27;;;;;;;8.13;6.80;;;;;;;16.64;76.78;100393.16;7397034;19;20104;-71
2023/09/18 05:26:55;;;;;;;11.45;6.50;;;;;;;16.63;76.84;100381.72;7399644;19;20021;-68
2023/09/18 05:29:24;;;;;;;7.78;7.07;;;;;;;16.64;77.07;100383.41;7397904;19;20086;-68
2023/09/18 05:31:52;;;;;;;8.05;7.25;;;;;;;16.65;76.97;100376.34;7398949;19;20014;-67
2023/09/18 05:34:23;;;;;;;10.32;7.30;;;;;;;16.66;76.93;100375.41;7396373;19;20094;-68
2023/09/18 05:36:52;;;;;;;8.23;7.43;;;;;;;16.68;76.96;100373.53;7399714;19;20014;-68
2023/09/18 05:39:21;;;;;;;7.82;7.10;;;;;;;16.68;77.16;100374.41;7396808;19;20038;-68
2023/09/18 05:41:49;;;;;;;8.23;7.43;;;;;;;16.71;77.10;100373.38;7397417;19;20011;-68
2023/09/18 05:44:18;;;;;;;9.82;7.28;;;;;;;16.72;77.13;100362.69;7397581;19;20541;-66
2023/09/18 05:46:46;;;;;;;12.70;8.10;;;;;;;16.74;76.73;100363.47;7396269;19;20022;-67
2023/09/18 05:49:15;;;;;;;9.73;7.63;;;;;;;16.75;76.76;100362.50;7399239;19;20010;-67
2023/09/18 05:51:47;;;;;;;9.15;8.20;;;;;;;16.80;77.15;100362.28;7397185;19;20013;-68
2023/09/18 05:54:15;;;;;;;7.60;6.90;;;;;;;16.82;77.17;100365.72;7397089;19;20513;-67
2023/09/18 05:56:44;;;;;;;10.98;7.25;;;;;;;16.84;76.77;100352.38;7399281;19;20018;-67
2023/09/18 05:59:12;;;;;;;8.73;7.50;;;;;;;16.87;76.85;100346.91;7398300;19;20010;-67
2023/09/18 06:01:41;;;;;;;8.55;7.70;;;;;;;16.90;76.95;100346.75;7397172;19;20010;-66
2023/09/18 06:04:10;;;;;;;9.32;7.40;;;;;;;16.93;76.84;100346.59;7397124;19;20070;-67
2023/09/18 06:07:03;;;;;;;9.02;7.20;;;;;;;16.96;76.98;100341.16;7397904;19;20015;-66
2023/09/18 06:09:31;;;;;;;7.00;6.40;;;;;;;16.99;76.67;100343.59;7398763;19;20082;-70
2023/09/18 06:12:00;;;;;;;8.40;7.65;;;;;;;17.02;76.73;100340.81;7398219;19;20352;-67
2023/09/18 06:14:28;;;;;;;7.53;6.82;;;;;;;17.05;76.78;100340.63;7395515;19;20425;-67
2023/09/18 06:16:57;;;;;;;8.50;7.03;;;;;;;17.08;76.76;100329.00;7397731;19;20031;-67
2023/09/18 06:19:26;;;;;;;9.27;8.00;;;;;;;17.13;76.78;100326.94;7398024;19;20024;-68
2023/09/18 06:21:54;;;;;;;10.02;7.10;;;;;;;17.17;76.91;100317.03;7397097;19;20010;-67
2023/09/18 06:24:25;;;;;;;8.98;7.10;;;;;;;17.21;76.78;100323.84;7396265;19;20493;-68
2023/09/18 06:26:54;;;;;;;8.63;7.82;;;;;;;17.26;76.86;100321.81;7398055;19;20070;-68
2023/09/18 06:29:37;;;;;;;9.93;6.95;;;;;;;17.32;77.07;100321.44;7396593;19;20028;-68
2023/09/18 06:32:06;;;;;;;7.60;6.68;;;;;;;17.38;76.77;100326.41;7398601;19;20369;-68
2023/09/18 06:34:43;;;;;;;7.57;6.82;;;;;;;17.42;76.56;100308.53;7396175;19;20022;-69
2023/09/18 06:37:12;;;;;;;8.07;7.35;;;;;;;17.49;76.68;100309.03;7397078;19;20490;-67
2023/09/18 06:39:43;;;;;;;8.20;7.40;;;;;;;17.55;76.72;100300.72;7394138;19;20011;-68
2023/09/18 06:42:12;;;;;;;8.27;7.15;;;;;;;17.61;76.41;100300.38;7395267;19;20070;-68
2023/09/18 06:44:40;;;;;;;9.52;7.82;;;;;;;17.65;76.58;100293.94;7395109;19;20027;-68
2023/09/18 06:47:09;;;;;;;9.15;6.88;;;;;;;17.74;76.30;100296.06;7397202;19;20078;-68
2023/09/18 06:49:38;;;;;;;7.22;6.10;;;;;;;17.82;76.21;100289.44;7396967;19;20010;-69
2023/09/18 06:52:06;;;;;;;7.88;7.07;;;;;;;17.89;76.20;100288.13;7396635;19;20015;-67
2023/09/18 06:54:36;;;;;;;7.28;6.65;;;;;;;17.96;76.16;100275.38;7395791;19;20015;-67
2023/09/18 06:57:07;;;;;;;8.05;6.75;;;;;;;18.03;76.33;100279.38;7396606;19;20517;-67
2023/09/18 06:59:35;;;;;;;9.10;7.70;;;;;;;18.09;76.19;100262.22;7397540;19;20031;-67
2023/09/18 07:02:04;;;;;;;8.40;7.03;;;;;;;18.18;76.11;100266.97;7395551;19;20546;-67
2023/09/18 07:04:32;;;;;;;8.40;7.00;;;;;;;18.25;76.26;100257.69;7394844;19;20027;-68
2023/09/18 07:07:01;;;;;;;8.60;6.88;;;;;;;18.34;75.92;100267.72;7396392;19;20073;-67
2023/09/18 07:09:30;;;;;;;8.35;7.38;;;;;;;18.41;75.79;100257.56;7396671;19;20082;-67
2023/09/18 07:11:58;;;;;;;8.30;7.50;;;;;;;18.50;75.67;100266.75;7396576;19;20010;-67
2023/09/18 07:14:30;;;;;;;14.90;8.27;;;;;;;18.59;75.46;100265.34;7394148;19;20018;-68
2023/09/18 07:17:00;;;;;;;7.20;6.47;;;;;;;18.65;75.61;100268.47;7396616;19;20011;-68
2023/09/18 07:19:29;;;;;;;8.52;7.00;;;;;;;18.72;75.67;100261.81;7395900;19;20082;-68
2023/09/18 07:21:57;;;;;;;9.02;7.68;;;;;;;18.80;75.13;100255.16;7395491;19;20014;-68
2023/09/18 07:24:27;;;;;;;9.43;6.82;;;;;;;18.89;75.23;100251.91;7394684;19;20027;-68
2023/09/18 07:26:57;;;;;;;7.25;6.55;;;;;;;18.98;75.09;100250.47;7396081;19;20078;-67
2023/09/18 07:29:28;;;;;;;8.38;7.10;;;;;;;19.08;75.02;100250.75;7395301;19;20018;-68
2023/09/18 07:31:57;;;;;;;8.88;7.22;;;;;;;19.16;74.99;100251.09;7396351;19;20074;-68
2023/09/18 07:34:25;;;;;;;8.75;6.60;;;;;;;19.25;74.23;100249.66;7394879;19;20035;-68
2023/09/18 07:36:55;;;;;;;7.75;6.35;;;;;;;19.32;74.53;100249.13;7395379;19;20419;-68
2023/09/18 07:39:24;;;;;;;6.60;6.00;;;;;;;19.42;74.14;100243.19;7395312;19;20014;-68
2023/09/18 07:41:52;;;;;;;6.50;5.90;;;;;;;19.51;73.63;100245.22;7393560;19;20427;-67
2023/09/18 07:44:22;;;;;;;6.50;5.90;;;;;;;19.59;73.41;100242.91;7394207;19;20017;-68
2023/09/18 07:46:54;;;;;;;7.35;6.03;;;;;;;19.68;73.65;100234.28;7395500;19;20006;-68
2023/09/18 07:49:22;;;;;;;6.50;5.65;;;;;;;19.79;73.25;100233.56;7395376;19;20348;-68
2023/09/18 07:51:51;;;;;;;7.63;6.72;;;;;;;19.89;72.71;100231.19;7394725;19;20035;-70
2023/09/18 07:54:19;;;;;;;9.25;6.13;;;;;;;20.00;72.87;100230.41;7394204;19;20011;-70
2023/09/18 07:56:48;;;;;;;9.35;6.70;;;;;;;20.08;72.18;100228.09;7393570;19;20362;-70
2023/09/18 07:59:17;;;;;;;8.02;6.80;;;;;;;20.19;72.27;100221.97;7394962;19;20031;-70
2023/09/18 08:01:45;;;;;;;7.03;6.43;;;;;;;20.29;71.58;100223.03;7394850;19;20017;-70
2023/09/18 08:04:16;;;;;;;6.18;5.57;;;;;;;20.43;71.82;100226.53;7393640;19;20091;-70
2023/09/18 08:06:45;;;;;;;6.18;5.57;;;;;;;20.55;71.25;100227.47;7394868;19;20028;-69
2023/09/18 08:09:15;;;;;;;6.38;5.78;;;;;;;20.63;71.15;100223.28;7392818;19;20085;-68
2023/09/18 08:11:44;;;;;;;6.97;6.10;;;;;;;20.74;71.27;100227.88;7394332;19;20546;-67
2023/09/18 08:14:12;;;;;;;6.53;5.72;;;;;;;20.86;70.52;100234.13;7393550;19;20017;-69
2023/09/18 08:16:41;;;;;;;5.85;5.35;;;;;;;20.97;70.00;100220.00;7408759;19;20031;-68
2023/09/18 08:19:10;;;;;;;9.73;4.95;;;;;;;21.11;69.53;100209.16;7410200;19;20017;-69
2023/09/18 08:21:41;;;;;;;10.68;5.10;;;;;;;21.29;68.29;100214.06;7410844;19;20023;-70
2023/09/18 08:24:09;;;;;;;6.25;5.32;;;;;;;21.45;67.63;100214.63;7408982;19;20082;-69
2023/09/18 08:26:38;;;;;;;4.97;4.55;;;;;;;21.62;67.24;100202.69;7408799;19;20010;-70
2023/09/18 08:29:06;;;;;;;5.38;4.50;;;;;;;21.81;66.33;100195.91;7409401;19;20014;-69
2023/09/18 08:31:35;;;;;;;4.47;4.07;;;;;;;21.97;65.71;100183.06;7409085;19;20082;-69
2023/09/18 08:34:03;;;;;;;4.68;4.28;;;;;;;22.15;65.09;100184.41;7406892;19;20014;-69
2023/09/18 08:36:32;;;;;;;5.50;4.60;;;;;;;22.32;63.48;100173.22;7406167;19;20032;-69
2023/09/18 08:39:05;;;;;;;4.80;4.40;;;;;;;22.52;62.31;100177.00;7408095;19;20014;-69
2023/09/18 08:41:35;;;;;;;4.40;4.00;;;;;;;22.71;61.67;100172.81;7407565;19;20018;-69
2023/09/18 08:44:05;;;;;;;5.32;4.40;;;;;;;22.87;60.96;100186.59;7406426;19;20470;-69
2023/09/18 08:46:34;;;;;;;5.07;3.70;;;;;;;23.04;60.34;100201.28;7408626;19;20018;-69
2023/09/18 08:49:03;;;;;;;4.75;4.35;;;;;;;23.21;60.08;100213.25;7407990;19;20034;-69
2023/09/18 08:51:32;;;;;;;6.63;5.05;;;;;;;23.36;58.86;100200.44;7405570;19;20010;-68
2023/09/18 08:54:04;;;;;;;6.97;4.38;;;;;;;23.52;57.81;100205.34;7405752;19;20069;-70
2023/09/18 08:56:35;;;;;;;5.70;4.65;;;;;;;23.67;57.63;100207.66;7408352;19;20014;-69
2023/09/18 08:59:03;;;;;;;4.60;4.20;;;;;;;23.81;57.21;100207.34;7408102;19;20031;-68
2023/09/18 09:01:32;;;;;;;6.80;4.00;;;;;;;23.93;57.17;100205.47;7407297;19;20014;-71
2023/09/18 09:04:00;;;;;;;4.50;4.10;;;;;;;24.06;56.86;100208.78;7405914;19;20006;-69
2023/09/18 09:06:29;;;;;;;4.30;3.92;;;;;;;24.17;55.96;100201.63;7407165;19;20129;-69
2023/09/18 09:08:59;;;;;;;6.60;5.10;;;;;;;24.28;55.75;100192.66;7404791;19;20090;-69
2023/09/18 09:11:30;;;;;;;4.70;4.10;;;;;;;24.39;54.04;100188.03;7407077;19;20010;-69
2023/09/18 09:14:17;;;;;;;3.92;3.60;;;;;;;24.51;53.77;100186.06;7405454;19;20426;-69
2023/09/18 09:16:50;;;;;;;5.07;4.55;;;;;;;24.61;53.79;100174.53;7405207;19;20018;-70
2023/09/18 09:19:19;;;;;;;3.97;3.60;;;;;;;24.70;53.76;100173.72;7407063;19;20507;-70
2023/09/18 09:21:51;;;;;;;4.28;3.80;;;;;;;24.82;53.04;100163.69;7406685;19;20070;-70
2023/09/18 09:24:19;;;;;;;5.28;3.65;;;;;;;24.92;52.91;100161.91;7405076;19;20019;-70
2023/09/18 09:27:00;;;;;;;4.13;3.70;;;;;;;25.02;51.66;100157.38;7397826;19;20482;-69
2023/09/18 09:29:29;;;;;;;7.82;3.60;;;;;;;25.12;52.32;100157.34;7399199;19;20015;-70
2023/09/18 09:31:58;;;;;;;4.35;3.80;;;;;;;25.20;51.98;100154.81;7399648;19;20066;-70
2023/09/18 09:34:28;;;;;;;3.72;3.30;;;;;;;25.30;51.48;100143.19;7397699;19;20368;-70
2023/09/18 09:37:00;;;;;;;8.50;3.40;;;;;;;25.39;51.13;100134.34;7399550;19;20017;-70
2023/09/18 09:39:30;;;;;;;3.60;3.10;;;;;;;25.46;51.19;100129.22;7399061;19;20011;-70
2023/09/18 09:42:03;;;;;;;3.97;3.50;;;;;;;25.52;50.41;100132.16;7398651;19;20018;-69
2023/09/18 09:44:34;;;;;;;4.70;3.42;;;;;;;25.56;50.16;100137.25;7397344;19;20070;-70
2023/09/18 09:47:03;;;;;;;4.03;3.38;;;;;;;25.59;49.79;100148.56;7399106;19;20007;-69
2023/09/18 09:49:33;;;;;;;7.88;3.50;;;;;;;25.60;49.28;100150.22;7399158;19;20368;-70
2023/09/18 09:52:03;;;;;;;5.28;3.47;;;;;;;25.61;49.48;100145.72;7400145;19;20010;-69
2023/09/18 09:54:40;;;;;;;4.85;3.75;;;;;;;25.63;49.12;100149.09;7396995;19;20014;-69
2023/09/18 09:57:11;;;;;;;3.88;3.38;;;;;;;25.62;48.65;100142.88;7399350;19;20014;-70
2023/09/18 09:59:44;;;;;;;5.40;3.42;;;;;;;25.63;48.77;100138.34;7399312;19;20078;-69
2023/09/18 10:02:19;;;;;;;4.30;3.42;;;;;;;25.63;48.76;100139.22;7396837;19;20014;-69
2023/09/18 10:04:50;;;;;;;4.07;3.67;;;;;;;25.62;48.61;100134.81;7396253;19;20015;-69
2023/09/18 10:07:20;;;;;;;4.22;3.80;;;;;;;25.64;48.64;100137.34;7398395;19;20401;-69
2023/09/18 10:09:50;;;;;;;3.83;3.53;;;;;;;25.65;48.67;100142.56;7398589;19;20066;-70
2023/09/18 10:12:25;;;;;;;4.53;3.90;;;;;;;25.66;47.84;100148.81;7396254;19;20074;-70
2023/09/18 10:14:56;;;;;;;6.63;3.58;;;;;;;25.70;48.62;100147.53;7398287;19;20078;-69
2023/09/18 10:17:25;;;;;;;4.82;3.75;;;;;;;25.75;48.72;100153.31;7397888;19;20406;-70
2023/09/18 10:20:00;;;;;;;5.60;4.10;;;;;;;25.79;48.30;100154.72;7397833;19;20019;-70
2023/09/18 10:22:37;;;;;;;4.82;3.83;;;;;;;25.82;48.28;100158.97;7397155;19;20090;-70
2023/09/18 10:25:17;;;;;;;3.92;3.63;;;;;;;25.85;48.60;100161.34;7397056;19;20015;-70
2023/09/18 10:27:52;;;;;;;4.40;4.00;;;;;;;25.90;48.92;100151.00;7398355;19;20007;-69
2023/09/18 10:30:22;;;;;;;4.65;3.58;;;;;;;25.92;48.53;100140.09;7395592;19;20041;-69
2023/09/18 10:32:53;;;;;;;4.03;3.53;;;;;;;25.92;48.77;100140.09;7397285;19;20042;-69
2023/09/18 10:35:22;;;;;;;3.20;2.90;;;;;;;25.91;48.28;100136.56;7397808;19;20022;-69
2023/09/18 10:37:53;;;;;;;7.68;4.05;;;;;;;25.88;48.04;100136.00;7396726;19;20082;-69
2023/09/18 10:40:23;;;;;;;3.55;3.25;;;;;;;25.82;48.20;100145.53;7397059;19;20502;-69
2023/09/18 10:42:59;;;;;;;5.45;3.38;;;;;;;25.78;48.12;100153.03;7395519;19;20015;-69
2023/09/18 10:45:28;;;;;;;4.32;3.15;;;;;;;25.74;48.42;100165.03;7396117;19;20014;-69
2023/09/18 10:47:58;;;;;;;6.10;3.78;;;;;;;25.69;48.47;100153.88;7397745;19;20011;-72
2023/09/18 10:50:28;;;;;;;6.20;4.28;;;;;;;25.64;48.53;100161.53;7397294;19;20584;-72
2023/09/18 10:53:00;;;;;;;5.25;4.18;;;;;;;25.63;49.24;100157.16;7395216;19;20028;-69
2023/09/18 10:55:29;;;;;;;5.07;3.80;;;;;;;25.61;49.38;100149.25;7397992;19;20082;-70
2023/09/18 10:58:02;;;;;;;4.80;4.40;;;;;;;25.61;49.04;100154.63;7396642;19;20010;-69
2023/09/18 11:00:36;;;;;;;6.53;4.63;;;;;;;25.64;49.42;100145.41;7397808;19;20023;-70
2023/09/18 11:03:17;;;;;;;5.78;4.35;;;;;;;25.67;49.05;100148.66;7396523;19;20014;-68
2023/09/18 11:05:50;;;;;;;4.85;4.10;;;;;;;25.73;48.97;100149.06;7395364;19;20019;-68
2023/09/18 11:08:33;;;;;;;8.50;3.83;;;;;;;25.75;48.24;100155.97;7397842;19;20006;-68
2023/09/18 11:11:09;;;;;;;4.00;3.55;;;;;;;25.74;47.98;100156.97;7396862;19;20524;-70
2023/09/18 11:13:43;;;;;;;4.57;3.22;;;;;;;25.70;47.45;100155.59;7395594;19;20018;-69
2023/09/18 11:16:21;;;;;;;5.95;3.67;;;;;;;25.65;47.51;100156.00;7395227;19;20410;-70
2023/09/18 11:18:54;;;;;;;4.63;3.67;;;;;;;25.62;47.92;100155.47;7396214;19;20058;-69
2023/09/18 11:21:27;;;;;;;5.25;3.60;;;;;;;25.57;48.00;100165.81;7395600;19;20082;-68
2023/09/18 11:24:03;;;;;;;;;;;;;;;25.52;48.45;100163.56;7393287;19;20423;-67
2023/09/18 11:26:33;;;;;;;5.25;3.63;;;;;;;25.47;48.65;100155.91;7395482;19;19918;-68
2023/09/18 11:29:09;;;;;;;4.32;3.70;;;;;;;25.45;48.16;100152.56;7395318;19;20493;-68
2023/09/18 11:31:51;;;;;;;6.28;3.42;;;;;;;25.46;48.75;100146.16;7394723;19;20070;-68
2023/09/18 11:34:26;;;;;;;5.68;4.13;;;;;;;25.50;48.71;100144.91;7393701;19;20014;-68
2023/09/18 11:36:55;;;;;;;5.60;3.70;;;;;;;25.56;48.60;100143.47;7395004;19;20360;-68